Collegedale, Tennessee
Current Conditions -  °F | °C
As of 3:53 PM on Saturday 20 Dec 2014 (Local Time) from KCHA Reporting Station
Scattered Clouds Scattered Clouds  
Wind Chill: 49°   Ceiling: Unl
Heat Index: 49°   Visibility: 10mi
Dew Point: 33°   Wind: 3mph
Humidity: 54%   Direction: 40°NE
Pressure: 30.18"   Gusts: NA
Location:  35.06°N, 85.07°W
Report Text: KCHA 202053Z 04003KT 10SM SCT028 SCT045 09/01 A3018 RMK AO2 SLP220 T00940006 56011
Loading
Personal Weather Stations






























Interactive Weather Map New forecast layout! Learn more

10-Day Weather Forecast

Advertisements
Track Severe Weather on mobile